createdAt,value
2022-10-29T00:01:28.780Z,6.82
2022-10-29T00:03:55.491Z,7.43
2022-10-29T00:06:22.233Z,6.60
2022-10-29T00:08:48.940Z,6.25
2022-10-29T00:11:20.312Z,3.45
2022-10-29T00:13:52.580Z,6.85
2022-10-29T00:16:24.677Z,9.95
2022-10-29T00:18:51.625Z,7.10
2022-10-29T00:21:23.008Z,7.40
2022-10-29T00:23:50.963Z,5.22
2022-10-29T00:26:20.778Z,7.35
2022-10-29T00:28:48.373Z,5.38
2022-10-29T00:31:18.924Z,8.13
2022-10-29T00:33:47.066Z,5.68
2022-10-29T00:36:19.758Z,5.40
2022-10-29T00:38:46.441Z,5.38
2022-10-29T00:41:18.734Z,5.65
2022-10-29T00:44:15.578Z,4.72
2022-10-29T00:46:50.914Z,6.50
2022-10-29T00:49:19.143Z,6.05
2022-10-29T00:51:51.393Z,8.38
2022-10-29T00:54:19.412Z,6.55
2022-10-29T00:57:17.062Z,4.57
2022-10-29T01:02:16.062Z,7.28
2022-10-29T01:04:43.798Z,8.10
2022-10-29T01:07:12.018Z,8.13
2022-10-29T01:09:40.000Z,4.40
2022-10-29T01:12:36.074Z,5.45
2022-10-29T01:15:24.576Z,5.90
2022-10-29T01:18:19.722Z,5.18
2022-10-29T01:21:32.567Z,6.50
2022-10-29T01:24:27.787Z,6.93
2022-10-29T01:27:24.262Z,7.30
2022-10-29T01:30:08.299Z,6.22
2022-10-29T01:33:15.309Z,4.95
2022-10-29T01:36:16.052Z,6.38
2022-10-29T01:39:00.116Z,7.13
2022-10-29T01:42:39.866Z,5.25
2022-10-29T01:45:33.825Z,8.20
2022-10-29T01:48:12.012Z,6.47
2022-10-29T01:50:44.344Z,8.35
2022-10-29T01:53:12.462Z,4.75
2022-10-29T01:55:39.170Z,5.55
2022-10-29T01:58:07.772Z,8.43
2022-10-29T02:01:05.649Z,5.88
2022-10-29T02:04:06.994Z,7.38
2022-10-29T02:06:59.428Z,4.18
2022-10-29T02:10:06.371Z,9.45
2022-10-29T02:13:07.632Z,6.38
2022-10-29T02:15:42.771Z,10.52
2022-10-29T02:18:10.090Z,5.10
2022-10-29T02:20:48.530Z,6.53
2022-10-29T02:23:17.240Z,7.35
2022-10-29T02:25:44.168Z,8.55
2022-10-29T02:28:11.072Z,7.80
2022-10-29T02:30:37.980Z,11.63
2022-10-29T02:33:04.638Z,15.98
2022-10-29T02:35:31.347Z,13.27
2022-10-29T02:37:58.049Z,20.40
2022-10-29T02:40:24.723Z,18.35
2022-10-29T02:42:51.415Z,22.65
2022-10-29T02:45:28.363Z,23.00
2022-10-29T02:47:55.394Z,21.13
2022-10-29T02:50:22.452Z,18.70
2022-10-29T02:52:49.192Z,16.27
2022-10-29T02:55:16.049Z,19.77
2022-10-29T02:57:46.767Z,25.42
2022-10-29T03:00:14.578Z,13.45
2022-10-29T03:02:41.879Z,15.88
2022-10-29T03:05:08.975Z,13.23
2022-10-29T03:07:38.001Z,13.80
2022-10-29T03:10:07.656Z,10.32
2022-10-29T03:12:34.680Z,9.27
2022-10-29T03:15:01.622Z,12.30
2022-10-29T03:17:28.330Z,14.40
2022-10-29T03:19:55.017Z,10.60
2022-10-29T03:22:21.736Z,9.80
2022-10-29T03:24:48.444Z,12.63
2022-10-29T03:27:15.171Z,8.82
2022-10-29T03:29:41.861Z,11.20
2022-10-29T03:32:08.539Z,14.32
2022-10-29T03:34:35.279Z,9.82
2022-10-29T03:37:01.959Z,9.63
2022-10-29T03:39:29.718Z,9.88
2022-10-29T03:41:56.473Z,11.85
2022-10-29T03:44:23.234Z,11.25
2022-10-29T03:46:49.925Z,9.93
2022-10-29T03:49:16.620Z,10.23
2022-10-29T03:51:43.367Z,9.57
2022-10-29T03:54:10.079Z,7.72
2022-10-29T03:56:36.768Z,8.02
2022-10-29T03:59:03.576Z,7.03
2022-10-29T04:01:30.494Z,9.18
2022-10-29T04:03:57.266Z,12.10
2022-10-29T04:06:23.974Z,8.52
2022-10-29T04:08:50.663Z,7.57
2022-10-29T04:11:17.504Z,9.70
2022-10-29T04:13:45.259Z,9.13
2022-10-29T04:16:11.972Z,8.50
2022-10-29T04:18:38.758Z,8.60
2022-10-29T04:29:26.285Z,7.20
2022-10-29T04:31:53.030Z,5.95
2022-10-29T04:34:19.775Z,6.40
2022-10-29T04:36:47.566Z,6.75
2022-10-29T04:39:16.155Z,8.25
2022-10-29T04:41:43.878Z,6.05
2022-10-29T04:44:10.567Z,7.20
2022-10-29T04:46:37.222Z,7.32
2022-10-29T04:49:03.983Z,7.90
2022-10-29T04:51:30.863Z,8.43
2022-10-29T04:53:57.640Z,8.57
2022-10-29T04:56:24.466Z,7.18
2022-10-29T04:58:52.695Z,8.68
2022-10-29T05:01:19.742Z,6.90
2022-10-29T05:03:46.745Z,7.35
2022-10-29T05:06:13.493Z,6.97
2022-10-29T05:08:40.280Z,6.60
2022-10-29T05:11:07.531Z,8.18
2022-10-29T05:13:36.850Z,5.93
2022-10-29T05:16:03.845Z,5.78
2022-10-29T05:18:30.579Z,8.27
2022-10-29T05:20:57.977Z,6.63
2022-10-29T05:23:24.904Z,6.90
2022-10-29T05:25:52.306Z,7.07
2022-10-29T05:28:22.886Z,7.43
2022-10-29T05:30:53.001Z,6.05
2022-10-29T05:33:23.190Z,7.70
2022-10-29T05:35:51.155Z,6.90
2022-10-29T05:38:18.460Z,6.78
2022-10-29T05:40:45.639Z,5.63
2022-10-29T05:43:16.921Z,5.68
2022-10-29T05:45:44.600Z,8.98
2022-10-29T05:50:44.379Z,7.00
2022-10-29T05:53:14.216Z,7.60
2022-10-29T05:55:42.832Z,6.22
2022-10-29T05:58:13.891Z,8.65
2022-10-29T06:00:44.639Z,9.57
2022-10-29T06:03:24.709Z,10.02
2022-10-29T06:05:51.631Z,9.88
2022-10-29T06:08:20.546Z,6.47
2022-10-29T06:10:52.467Z,9.48
2022-10-29T06:13:24.320Z,10.45
2022-10-29T06:15:57.416Z,10.38
2022-10-29T06:18:26.574Z,8.45
2022-10-29T06:20:57.229Z,9.40
2022-10-29T06:23:23.966Z,8.18
2022-10-29T06:25:50.707Z,8.75
2022-10-29T06:28:19.026Z,10.07
2022-10-29T06:30:51.077Z,10.30
2022-10-29T06:33:19.065Z,9.02
2022-10-29T06:35:48.987Z,12.27
2022-10-29T06:38:15.894Z,8.15
2022-10-29T06:40:43.464Z,12.25
2022-10-29T06:43:17.911Z,8.88
2022-10-29T06:45:44.623Z,9.13
2022-10-29T06:48:11.407Z,11.95
2022-10-29T06:50:38.124Z,13.27
2022-10-29T06:53:07.676Z,8.18
2022-10-29T06:55:35.137Z,9.88
2022-10-29T06:58:05.603Z,9.90
2022-10-29T07:00:35.712Z,8.18
2022-10-29T07:03:05.441Z,6.25
2022-10-29T07:05:33.107Z,9.23
2022-10-29T07:08:02.577Z,9.93
2022-10-29T07:10:32.848Z,9.88
2022-10-29T07:13:00.604Z,10.15
2022-10-29T07:15:30.657Z,11.88
2022-10-29T07:18:05.407Z,7.47
2022-10-29T07:20:40.357Z,10.23
2022-10-29T07:23:07.916Z,11.50
2022-10-29T07:25:37.201Z,12.80
2022-10-29T07:28:13.691Z,12.32
2022-10-29T07:30:43.997Z,12.45
2022-10-29T07:33:11.301Z,12.68
2022-10-29T07:35:43.049Z,11.95
2022-10-29T07:38:12.255Z,9.90
2022-10-29T07:40:45.793Z,11.38
2022-10-29T07:43:12.541Z,10.18
2022-10-29T07:45:39.332Z,13.70
2022-10-29T07:48:09.731Z,12.18
2022-10-29T07:50:38.569Z,12.82
2022-10-29T07:53:07.191Z,15.75
2022-10-29T07:55:34.770Z,17.13
2022-10-29T07:58:10.911Z,14.45
2022-10-29T08:00:41.053Z,15.63
2022-10-29T08:03:08.410Z,17.40
2022-10-29T08:05:35.798Z,13.32
2022-10-29T08:08:02.767Z,14.73
2022-10-29T08:10:31.880Z,18.13
2022-10-29T08:13:03.229Z,14.98
2022-10-29T08:15:33.587Z,14.63
2022-10-29T08:18:01.488Z,18.92
2022-10-29T08:20:29.490Z,15.57
2022-10-29T08:23:00.389Z,13.38
2022-10-29T08:25:29.113Z,17.35
2022-10-29T08:28:02.627Z,16.35
2022-10-29T08:30:31.108Z,17.25
2022-10-29T08:32:58.425Z,11.68
2022-10-29T08:35:25.596Z,17.42
2022-10-29T08:37:52.983Z,14.23
2022-10-29T08:41:15.240Z,14.27
2022-10-29T08:44:06.105Z,12.93
2022-10-29T08:47:05.352Z,21.55
2022-10-29T08:50:14.043Z,11.32
2022-10-29T08:52:53.238Z,13.43
2022-10-29T08:55:38.108Z,10.02
2022-10-29T08:58:36.012Z,15.95
2022-10-29T09:01:03.337Z,11.85
2022-10-29T09:03:30.260Z,13.23
2022-10-29T09:06:26.619Z,15.60
2022-10-29T09:09:20.999Z,11.43
2022-10-29T09:12:29.134Z,12.27
2022-10-29T09:15:38.357Z,10.40
2022-10-29T09:18:38.959Z,13.25
2022-10-29T09:21:28.738Z,14.45
2022-10-29T09:24:14.839Z,11.68
2022-10-29T09:26:52.190Z,10.90
2022-10-29T09:29:30.645Z,13.25
2022-10-29T09:32:10.220Z,13.55
2022-10-29T09:35:02.764Z,15.63
2022-10-29T09:37:52.563Z,10.70
2022-10-29T09:40:38.679Z,12.57
2022-10-29T09:43:32.973Z,13.00
2022-10-29T09:46:23.363Z,14.63
2022-10-29T09:49:19.599Z,12.07
2022-10-29T09:52:04.973Z,12.07
2022-10-29T09:54:32.934Z,11.48
2022-10-29T09:57:03.648Z,13.10
2022-10-29T09:59:49.762Z,12.73
2022-10-29T10:02:42.113Z,12.10
2022-10-29T10:05:19.852Z,9.82
2022-10-29T10:08:09.304Z,12.27
2022-10-29T10:11:01.182Z,11.88
2022-10-29T10:13:32.478Z,11.30
2022-10-29T10:16:03.026Z,11.70
2022-10-29T10:18:32.825Z,12.95
2022-10-29T10:21:08.436Z,10.90
2022-10-29T10:23:54.262Z,10.07
2022-10-29T10:26:45.015Z,12.98
2022-10-29T10:29:17.847Z,11.57
2022-10-29T10:31:50.845Z,11.40
2022-10-29T10:34:19.185Z,13.30
2022-10-29T10:37:18.481Z,12.43
2022-10-29T10:40:04.480Z,15.05
2022-10-29T10:42:47.312Z,12.20
2022-10-29T10:45:25.761Z,10.43
2022-10-29T10:47:58.831Z,13.57
2022-10-29T10:50:36.952Z,12.98
2022-10-29T10:53:19.381Z,7.88
2022-10-29T10:56:03.885Z,9.43
2022-10-29T10:58:40.680Z,12.15
2022-10-29T11:01:18.777Z,17.85
2022-10-29T11:03:50.818Z,11.73
2022-10-29T11:06:33.090Z,9.27
2022-10-29T11:09:38.304Z,11.70
2022-10-29T11:12:30.257Z,12.10
2022-10-29T11:15:39.883Z,12.93
2022-10-29T11:18:22.049Z,14.70
2022-10-29T11:21:04.979Z,14.63
2022-10-29T11:24:09.868Z,12.23
2022-10-29T11:26:54.738Z,9.23
2022-10-29T11:29:36.430Z,10.68
2022-10-29T11:32:25.532Z,13.65
2022-10-29T11:35:09.656Z,13.02
2022-10-29T11:38:04.579Z,8.75
2022-10-29T11:41:05.811Z,9.02
2022-10-29T11:43:33.654Z,8.60
2022-10-29T11:46:27.557Z,9.00
2022-10-29T11:49:24.348Z,12.90
2022-10-29T11:52:05.264Z,8.95
2022-10-29T11:55:07.575Z,11.10
2022-10-29T11:57:58.283Z,11.07
2022-10-29T12:00:32.313Z,11.73
2022-10-29T12:03:42.944Z,11.40
2022-10-29T12:07:05.708Z,9.60
2022-10-29T12:10:17.625Z,8.23
2022-10-29T12:13:09.307Z,10.10
2022-10-29T12:16:15.970Z,12.05
2022-10-29T12:18:57.776Z,9.75
2022-10-29T12:21:49.108Z,11.23
2022-10-29T12:24:53.323Z,11.27
2022-10-29T12:28:05.877Z,8.52
2022-10-29T12:31:00.616Z,10.50
2022-10-29T12:34:05.431Z,13.20
2022-10-29T12:36:54.981Z,13.65
2022-10-29T12:39:37.219Z,9.75
2022-10-29T12:42:30.923Z,8.48
2022-10-29T12:45:30.726Z,8.07
2022-10-29T12:48:16.878Z,11.13
2022-10-29T12:51:24.743Z,10.82
2022-10-29T12:54:28.708Z,7.88
2022-10-29T12:56:59.431Z,12.10
2022-10-29T12:59:37.513Z,10.95
2022-10-29T13:02:32.165Z,11.15
2022-10-29T13:05:10.855Z,12.10
2022-10-29T13:08:02.000Z,10.75
2022-10-29T13:10:35.052Z,10.18
2022-10-29T13:13:23.867Z,9.52
2022-10-29T13:16:12.830Z,8.95
2022-10-29T13:18:41.709Z,7.75
2022-10-29T13:21:09.396Z,9.15
2022-10-29T13:23:39.632Z,8.70
2022-10-29T13:26:10.603Z,10.80
2022-10-29T13:28:40.056Z,12.13
2022-10-29T13:31:06.664Z,9.10
2022-10-29T13:33:33.313Z,8.43
2022-10-29T13:36:03.857Z,11.85
2022-10-29T13:39:06.451Z,9.90
2022-10-29T13:41:51.940Z,9.52
2022-10-29T13:44:27.534Z,9.10
2022-10-29T13:47:07.556Z,13.13
2022-10-29T13:49:41.976Z,11.10
2022-10-29T13:52:24.970Z,12.25
2022-10-29T13:55:08.104Z,8.88
2022-10-29T13:57:57.260Z,8.32
2022-10-29T14:00:28.067Z,7.93
2022-10-29T14:03:02.479Z,7.97
2022-10-29T14:05:53.178Z,7.22
2022-10-29T14:09:15.808Z,7.90
2022-10-29T14:11:55.580Z,10.45
2022-10-29T14:14:38.955Z,7.97
2022-10-29T14:17:17.992Z,8.88
2022-10-29T14:19:51.180Z,9.82
2022-10-29T14:22:37.751Z,7.65
2022-10-29T14:25:24.467Z,7.50
2022-10-29T14:28:18.513Z,10.68
2022-10-29T14:31:06.864Z,7.45
2022-10-29T14:33:37.326Z,6.65
2022-10-29T14:36:36.065Z,5.80
2022-10-29T14:39:28.773Z,8.63
2022-10-29T14:42:12.171Z,5.25
2022-10-29T14:44:39.460Z,6.85
2022-10-29T14:47:16.825Z,7.80
2022-10-29T14:49:50.204Z,7.20
2022-10-29T14:52:41.141Z,9.57
2022-10-29T14:55:18.385Z,9.07
2022-10-29T14:57:52.739Z,7.70
2022-10-29T15:00:30.306Z,11.93
2022-10-29T15:02:58.254Z,6.88
2022-10-29T15:05:37.866Z,8.82
2022-10-29T15:08:10.662Z,14.15
2022-10-29T15:10:58.205Z,8.70
2022-10-29T15:13:27.682Z,9.15
2022-10-29T15:16:03.533Z,9.50
2022-10-29T15:18:33.074Z,7.90
2022-10-29T15:21:01.620Z,8.88
2022-10-29T15:23:36.778Z,10.05
2022-10-29T15:26:09.569Z,9.02
2022-10-29T15:28:45.047Z,7.55
2022-10-29T15:31:45.490Z,8.07
2022-10-29T15:34:32.400Z,10.05
2022-10-29T15:37:17.991Z,6.53
2022-10-29T15:40:12.451Z,8.95
2022-10-29T15:42:41.030Z,8.43
2022-10-29T15:45:07.820Z,10.32
2022-10-29T15:47:37.247Z,10.70
2022-10-29T15:50:06.552Z,8.18
2022-10-29T15:52:42.102Z,9.13
2022-10-29T15:55:26.338Z,9.30
2022-10-29T15:57:59.389Z,6.78
2022-10-29T16:00:26.615Z,6.78
2022-10-29T16:03:26.522Z,8.73
2022-10-29T16:06:03.703Z,8.50
2022-10-29T16:08:47.519Z,11.10
2022-10-29T16:11:22.378Z,7.47
2022-10-29T16:13:54.723Z,6.70
2022-10-29T16:16:25.670Z,9.15
2022-10-29T16:18:53.336Z,9.13
2022-10-29T16:21:25.709Z,8.02
2022-10-29T16:23:54.176Z,10.48
2022-10-29T16:26:25.566Z,10.90
2022-10-29T16:28:53.357Z,6.97
2022-10-29T16:31:24.903Z,9.43
2022-10-29T16:33:57.837Z,10.65
2022-10-29T16:36:25.758Z,8.50
2022-10-29T16:38:52.667Z,8.05
2022-10-29T16:41:21.135Z,8.57
2022-10-29T16:43:48.527Z,7.28
2022-10-29T16:46:15.773Z,9.35
2022-10-29T16:48:43.319Z,9.68
2022-10-29T16:51:10.019Z,7.43
2022-10-29T16:53:36.933Z,10.52
2022-10-29T16:56:04.097Z,12.85
2022-10-29T16:58:30.894Z,11.07
2022-10-29T17:01:10.634Z,10.02
2022-10-29T17:03:41.500Z,12.68
2022-10-29T17:06:28.300Z,12.48
2022-10-29T17:08:55.011Z,9.45
2022-10-29T17:11:21.769Z,9.57
2022-10-29T17:13:48.468Z,7.88
2022-10-29T17:16:16.227Z,10.02
2022-10-29T17:18:43.001Z,14.43
2022-10-29T17:21:09.834Z,12.95
2022-10-29T17:23:36.603Z,8.27
2022-10-29T17:26:03.353Z,12.48
2022-10-29T17:28:30.209Z,10.30
2022-10-29T17:30:56.966Z,8.63
2022-10-29T17:33:23.785Z,7.97
2022-10-29T17:36:10.280Z,11.15
2022-10-29T17:38:37.027Z,9.50
2022-10-29T17:41:03.838Z,13.35
2022-10-29T17:43:30.758Z,9.23
2022-10-29T17:45:58.961Z,15.30
2022-10-29T17:48:25.748Z,13.00
2022-10-29T17:50:58.966Z,8.65
2022-10-29T17:53:28.403Z,11.77
2022-10-29T17:56:00.289Z,15.60
2022-10-29T17:58:27.574Z,10.75
2022-10-29T18:00:54.648Z,8.85
2022-10-29T18:03:27.919Z,7.45
2022-10-29T18:06:00.878Z,8.82
2022-10-29T18:08:30.149Z,10.18
2022-10-29T18:11:16.900Z,10.23
2022-10-29T18:13:46.084Z,12.43
2022-10-29T18:16:19.750Z,9.52
2022-10-29T18:19:01.286Z,8.55
2022-10-29T18:21:31.120Z,10.95
2022-10-29T18:23:58.248Z,12.43
2022-10-29T18:26:43.264Z,10.13
2022-10-29T18:29:12.388Z,13.48
2022-10-29T18:31:42.203Z,10.85
2022-10-29T18:34:09.712Z,16.55
2022-10-29T18:36:36.784Z,7.47
2022-10-29T18:39:06.063Z,11.07
2022-10-29T18:41:34.465Z,13.35
2022-10-29T18:44:01.931Z,11.98
2022-10-29T18:46:28.629Z,10.35
2022-10-29T18:48:55.378Z,12.30
2022-10-29T18:51:30.316Z,9.05
2022-10-29T18:53:58.513Z,11.13
2022-10-29T18:56:27.716Z,11.98
2022-10-29T18:58:57.272Z,19.38
2022-10-29T19:01:31.966Z,12.43
2022-10-29T19:04:06.590Z,11.23
2022-10-29T19:06:36.518Z,14.43
2022-10-29T19:09:07.994Z,11.10
2022-10-29T19:11:36.208Z,11.05
2022-10-29T19:14:07.934Z,14.40
2022-10-29T19:16:34.977Z,9.65
2022-10-29T19:19:07.285Z,14.90
2022-10-29T19:21:36.268Z,11.02
2022-10-29T19:24:04.307Z,14.10
2022-10-29T19:26:35.364Z,11.38
2022-10-29T19:29:05.823Z,10.15
2022-10-29T19:31:35.539Z,13.27
2022-10-29T19:34:06.438Z,11.75
2022-10-29T19:36:36.316Z,10.75
2022-10-29T19:39:04.418Z,11.18
2022-10-29T19:41:31.519Z,9.63
2022-10-29T19:44:02.642Z,14.13
2022-10-29T19:46:36.518Z,12.02
2022-10-29T19:49:03.498Z,10.30
2022-10-29T19:51:30.337Z,17.42
2022-10-29T19:53:58.902Z,14.60
2022-10-29T19:56:36.766Z,10.23
2022-10-29T19:59:12.060Z,11.25
2022-10-29T20:01:43.669Z,9.70
2022-10-29T20:04:22.835Z,14.40
2022-10-29T20:06:49.623Z,9.68
2022-10-29T20:09:16.380Z,11.70
2022-10-29T20:11:46.331Z,11.20
2022-10-29T20:14:13.107Z,9.77
2022-10-29T20:16:40.927Z,11.23
2022-10-29T20:19:20.150Z,9.27
2022-10-29T20:21:47.916Z,12.27
2022-10-29T20:24:14.665Z,11.77
2022-10-29T20:26:47.805Z,16.35
2022-10-29T20:29:15.660Z,14.23
2022-10-29T20:31:47.506Z,9.10
2022-10-29T20:34:18.472Z,12.85
2022-10-29T20:36:46.612Z,13.27
2022-10-29T20:39:16.544Z,12.20
2022-10-29T20:41:43.558Z,11.15
2022-10-29T20:44:10.301Z,14.45
2022-10-29T20:46:42.689Z,12.65
2022-10-29T20:49:10.761Z,13.98
2022-10-29T20:51:37.690Z,11.55
2022-10-29T20:54:04.720Z,10.70
2022-10-29T20:56:31.482Z,11.73
2022-10-29T20:58:58.176Z,14.45
2022-10-29T21:01:25.754Z,9.65
2022-10-29T21:03:52.827Z,10.57
2022-10-29T21:06:20.557Z,9.63
2022-10-29T21:08:51.173Z,15.50
2022-10-29T21:11:20.632Z,10.90
2022-10-29T21:13:47.565Z,11.10
2022-10-29T21:16:29.387Z,10.45
2022-10-29T21:19:01.315Z,10.70
2022-10-29T21:21:29.473Z,9.82
2022-10-29T21:23:59.623Z,10.50
2022-10-29T21:26:28.559Z,10.38
2022-10-29T21:28:58.528Z,10.65
2022-10-29T21:31:25.723Z,12.77
2022-10-29T21:33:53.460Z,10.50
2022-10-29T21:36:23.131Z,10.23
2022-10-29T21:38:50.878Z,11.43
2022-10-29T21:41:18.400Z,14.05
2022-10-29T21:43:45.320Z,13.85
2022-10-29T21:46:12.081Z,14.82
2022-10-29T21:48:39.266Z,14.05
2022-10-29T21:51:11.191Z,12.85
2022-10-29T21:53:38.454Z,14.55
2022-10-29T21:56:08.097Z,12.48
2022-10-29T21:58:34.887Z,8.38
2022-10-29T22:01:12.227Z,6.68
2022-10-29T22:03:46.676Z,9.73
2022-10-29T22:06:20.469Z,13.07
2022-10-29T22:08:53.068Z,8.00
2022-10-29T22:11:19.764Z,10.35
2022-10-29T22:13:47.572Z,7.95
2022-10-29T22:16:14.948Z,8.15
2022-10-29T22:18:41.903Z,12.30
2022-10-29T22:21:14.559Z,8.65
2022-10-29T22:23:54.316Z,7.15
2022-10-29T22:26:25.874Z,8.95
2022-10-29T22:28:54.255Z,11.10
2022-10-29T22:31:23.313Z,5.75
2022-10-29T22:33:50.941Z,8.43
2022-10-29T22:36:22.024Z,6.63
2022-10-29T22:38:57.622Z,10.93
2022-10-29T22:41:26.553Z,7.68
2022-10-29T22:43:58.842Z,8.90
2022-10-29T22:46:27.961Z,10.82
2022-10-29T22:48:54.911Z,9.52
2022-10-29T22:51:26.056Z,9.27
2022-10-29T22:53:54.208Z,12.30
2022-10-29T22:56:26.236Z,7.57
2022-10-29T22:58:53.621Z,8.93
2022-10-29T23:01:31.388Z,8.38
2022-10-29T23:03:59.642Z,7.15
2022-10-29T23:06:28.109Z,8.98
2022-10-29T23:09:03.830Z,9.07
2022-10-29T23:11:34.803Z,10.02
2022-10-29T23:14:02.834Z,6.68
2022-10-29T23:16:32.352Z,9.73
2022-10-29T23:19:03.409Z,7.10
2022-10-29T23:21:37.391Z,9.63
2022-10-29T23:24:04.383Z,8.50
2022-10-29T23:26:31.089Z,8.73
2022-10-29T23:28:57.860Z,7.22
2022-10-29T23:31:28.396Z,8.32
2022-10-29T23:33:58.414Z,11.50
2022-10-29T23:36:26.983Z,11.82
2022-10-29T23:39:01.418Z,8.25
2022-10-29T23:41:31.502Z,10.68
2022-10-29T23:43:58.878Z,9.23
2022-10-29T23:46:25.700Z,9.60
2022-10-29T23:48:52.471Z,6.63
2022-10-29T23:51:19.601Z,11.07
2022-10-29T23:53:46.439Z,5.80
2022-10-29T23:56:13.403Z,14.15
2022-10-29T23:58:40.119Z,9.13
